createdAt,value
2023-03-11T00:00:03.288Z,98124.22
2023-03-11T00:03:05.342Z,98121.28
2023-03-11T00:06:06.304Z,98133.06
2023-03-11T00:09:06.304Z,98126.19
2023-03-11T00:12:06.317Z,98121.13
2023-03-11T00:15:06.362Z,98122.91
2023-03-11T00:18:06.318Z,98115.38
2023-03-11T00:21:06.343Z,98110.31
2023-03-11T00:24:07.325Z,98101.44
2023-03-11T00:27:07.328Z,98112.44
2023-03-11T00:30:07.321Z,98110.13
2023-03-11T00:33:09.348Z,98096.22
2023-03-11T00:36:09.331Z,98094.59
2023-03-11T00:39:09.338Z,98093.59
2023-03-11T00:42:09.277Z,98093.28
2023-03-11T00:45:09.315Z,98079.84
2023-03-11T00:48:09.292Z,98085.41
2023-03-11T00:51:09.306Z,98080.31
2023-03-11T00:54:09.329Z,98082.59
2023-03-11T00:57:09.290Z,98070.16
2023-03-11T01:00:09.293Z,98037.59
2023-03-11T01:03:09.278Z,98059.03
2023-03-11T01:06:10.305Z,98061.94
2023-03-11T01:09:11.321Z,98062.28
2023-03-11T01:12:11.308Z,98059.47
2023-03-11T01:15:11.292Z,98050.16
2023-03-11T01:18:11.292Z,98051.16
2023-03-11T01:21:11.284Z,98048.56
2023-03-11T01:24:11.340Z,98037.41
2023-03-11T01:27:11.293Z,98034.47
2023-03-11T01:30:11.312Z,98037.75
2023-03-11T01:33:11.300Z,98038.75
2023-03-11T01:36:11.282Z,98033.53
2023-03-11T01:39:11.331Z,98035.47
2023-03-11T01:42:11.303Z,98035.31
2023-03-11T01:45:11.290Z,98024.66
2023-03-11T01:48:11.339Z,98009.28
2023-03-11T01:51:11.296Z,98027.97
2023-03-11T01:54:13.303Z,98031.38
2023-03-11T01:57:13.326Z,98023.84
2023-03-11T02:00:14.318Z,98024.66
2023-03-11T02:03:16.392Z,98017.50
2023-03-11T02:06:18.324Z,98010.94
2023-03-11T02:09:19.308Z,98014.06
2023-03-11T02:12:20.331Z,98015.03
2023-03-11T02:15:21.315Z,98008.66
2023-03-11T02:18:25.294Z,98000.47
2023-03-11T02:21:42.326Z,98019.44
2023-03-11T02:24:49.332Z,98008.81
2023-03-11T02:27:52.291Z,98006.03
2023-03-11T02:30:54.335Z,98006.69
2023-03-11T02:33:55.307Z,98008.00
2023-03-11T02:36:56.306Z,98013.06
2023-03-11T02:40:02.299Z,98007.81
2023-03-11T02:43:04.338Z,98009.63
2023-03-11T02:46:04.290Z,98007.34
2023-03-11T02:49:05.341Z,97998.84
2023-03-11T02:52:05.350Z,97993.59
2023-03-11T02:55:05.334Z,97985.44
2023-03-11T02:58:05.327Z,97997.88
2023-03-11T03:01:05.342Z,98002.59
2023-03-11T03:04:05.304Z,98002.59
2023-03-11T03:07:05.280Z,98000.16
2023-03-11T03:10:05.292Z,97995.22
2023-03-11T03:13:05.313Z,97994.72
2023-03-11T03:16:05.417Z,97989.00
2023-03-11T03:19:05.274Z,97982.97
2023-03-11T03:22:05.338Z,97975.91
2023-03-11T03:25:06.282Z,97981.47
2023-03-11T03:28:06.319Z,97967.75
2023-03-11T03:31:07.345Z,97988.66
2023-03-11T03:34:07.311Z,97985.22
2023-03-11T03:37:07.292Z,97990.13
2023-03-11T03:40:07.281Z,97989.00
2023-03-11T03:43:07.298Z,97985.59
2023-03-11T03:46:13.332Z,97982.81
2023-03-11T03:49:13.322Z,97988.53
2023-03-11T03:52:13.326Z,97995.56
2023-03-11T03:55:13.304Z,97968.25
2023-03-11T04:01:58.354Z,97991.16
2023-03-11T04:04:58.287Z,97985.75
2023-03-11T04:07:58.339Z,97965.66
2023-03-11T04:11:00.294Z,97963.69
2023-03-11T04:14:01.346Z,97967.09
2023-03-11T04:17:01.305Z,97953.31
2023-03-11T04:20:01.324Z,97961.34
2023-03-11T04:23:01.290Z,97952.16
2023-03-11T04:26:01.336Z,97923.91
2023-03-11T04:29:02.333Z,97923.22
2023-03-11T04:32:03.278Z,97952.75
2023-03-11T04:35:04.321Z,97925.75
2023-03-11T04:38:04.326Z,97954.22
2023-03-11T04:41:04.293Z,97966.28
2023-03-11T04:44:04.313Z,97986.22
2023-03-11T04:47:04.286Z,97989.97
2023-03-11T04:50:04.280Z,97989.00
2023-03-11T04:53:04.290Z,97992.91
2023-03-11T04:56:04.318Z,97992.88
2023-03-11T04:59:04.313Z,97997.59
2023-03-11T05:02:04.272Z,97994.81
2023-03-11T05:05:05.298Z,97997.88
2023-03-11T05:08:05.320Z,97998.47
2023-03-11T05:11:06.266Z,97990.13
2023-03-11T05:14:07.307Z,97995.69
2023-03-11T05:17:07.320Z,97994.81
2023-03-11T05:20:07.337Z,97997.37
2023-03-11T05:23:07.504Z,97981.34
2023-03-11T05:26:07.335Z,98000.78
2023-03-11T05:29:07.318Z,97992.00
2023-03-11T05:32:07.342Z,98023.41
2023-03-11T05:35:08.291Z,98021.97
2023-03-11T05:38:08.307Z,98035.19
2023-03-11T05:41:08.307Z,98029.66
2023-03-11T05:44:08.362Z,98014.25
2023-03-11T05:47:09.337Z,98027.47
2023-03-11T05:50:09.315Z,98026.78
2023-03-11T05:53:10.303Z,98035.50
2023-03-11T05:56:14.289Z,98035.09
2023-03-11T05:59:16.594Z,98040.91
2023-03-11T06:02:17.293Z,98030.19
2023-03-11T06:05:17.458Z,98008.66
2023-03-11T06:08:17.325Z,98021.75
2023-03-11T06:11:22.293Z,98030.41
2023-03-11T06:14:25.281Z,98026.97
2023-03-11T06:17:27.357Z,98015.94
2023-03-11T06:20:28.357Z,98009.44
2023-03-11T06:23:28.350Z,98021.66
2023-03-11T06:26:31.234Z,98025.84
2023-03-11T06:29:33.271Z,98033.31
2023-03-11T06:32:33.338Z,98028.47
2023-03-11T06:35:34.306Z,98024.25
2023-03-11T06:38:36.269Z,98033.06
2023-03-11T06:41:37.321Z,98033.56
2023-03-11T06:44:37.336Z,98024.81
2023-03-11T06:47:37.320Z,98025.69
2023-03-11T06:50:37.297Z,98026.97
2023-03-11T06:53:37.337Z,98036.47
2023-03-11T06:56:37.328Z,98033.22
2023-03-11T06:59:37.279Z,98018.00
2023-03-11T07:02:30.330Z,98025.56
2023-03-11T07:05:09.433Z,98043.69
2023-03-11T07:08:09.311Z,98053.50
2023-03-11T07:11:24.343Z,98016.72
2023-03-11T07:14:24.286Z,98012.63
2023-03-11T07:17:24.297Z,98032.91
2023-03-11T07:20:24.326Z,98001.69
2023-03-11T07:23:24.295Z,98040.59
2023-03-11T07:26:25.319Z,98039.25
2023-03-11T07:29:25.332Z,98026.53
2023-03-11T07:32:25.340Z,98018.59
2023-03-11T07:35:25.312Z,98015.12
2023-03-11T07:38:26.295Z,98034.41
2023-03-11T07:41:27.371Z,98033.78
2023-03-11T07:44:28.332Z,98046.53
2023-03-11T07:47:28.299Z,98046.75
2023-03-11T07:50:30.388Z,98053.09
2023-03-11T07:53:31.270Z,98051.25
2023-03-11T07:56:32.302Z,98043.91
2023-03-11T07:59:33.320Z,98056.22
2023-03-11T08:02:33.417Z,98022.47
2023-03-11T08:05:33.291Z,98054.56
2023-03-11T08:08:33.330Z,98061.53
2023-03-11T08:11:33.315Z,98046.22
2023-03-11T08:14:33.316Z,98042.91
2023-03-11T08:17:33.294Z,98066.31
2023-03-11T08:20:33.289Z,98072.00
2023-03-11T08:23:33.305Z,98066.41
2023-03-11T08:26:35.316Z,98088.44
2023-03-11T08:29:35.321Z,98072.19
2023-03-11T08:32:38.362Z,98107.72
2023-03-11T08:35:38.300Z,98102.38
2023-03-11T08:38:38.314Z,98097.25
2023-03-11T08:41:38.313Z,98117.13
2023-03-11T08:44:38.305Z,98115.62
2023-03-11T08:47:38.312Z,98112.34
2023-03-11T08:50:52.880Z,98134.47
2023-03-11T08:53:54.306Z,98128.56
2023-03-11T08:56:54.338Z,98131.13
2023-03-11T08:59:54.290Z,98156.87
2023-03-11T09:02:54.317Z,98151.91
2023-03-11T09:05:54.337Z,98149.91
2023-03-11T09:08:54.278Z,98156.97
2023-03-11T09:11:54.297Z,98156.41
2023-03-11T09:14:55.307Z,98171.75
2023-03-11T09:17:55.315Z,98173.53
2023-03-11T09:20:55.447Z,98145.16
2023-03-11T09:23:55.298Z,98166.19
2023-03-11T09:26:55.344Z,98167.28
2023-03-11T09:29:55.286Z,98176.66
2023-03-11T09:32:55.373Z,98188.81
2023-03-11T09:35:55.404Z,98208.38
2023-03-11T09:38:56.318Z,98181.16
2023-03-11T09:42:09.292Z,98179.31
2023-03-11T09:45:12.348Z,98195.31
2023-03-11T09:48:48.297Z,98189.66
2023-03-11T09:51:55.312Z,98198.50
2023-03-11T09:55:04.290Z,98195.53
2023-03-11T09:58:04.331Z,98183.53
2023-03-11T10:01:04.328Z,98207.75
2023-03-11T10:04:06.272Z,98213.38
2023-03-11T10:07:06.300Z,98210.91
2023-03-11T10:10:08.307Z,98178.59
2023-03-11T10:13:17.295Z,98217.41
2023-03-11T10:16:28.363Z,98229.44
2023-03-11T10:19:58.295Z,98233.41
2023-03-11T10:23:05.315Z,98228.31
2023-03-11T10:26:24.342Z,98227.25
2023-03-11T10:29:32.313Z,98224.31
2023-03-11T10:32:52.388Z,98229.31
2023-03-11T10:35:54.305Z,98231.75
2023-03-11T10:38:58.287Z,98242.38
2023-03-11T10:42:03.367Z,98234.59
2023-03-11T10:45:03.301Z,98224.28
2023-03-11T10:48:03.269Z,98235.88
2023-03-11T10:51:11.281Z,98232.28
2023-03-11T10:54:13.281Z,98217.03
2023-03-11T10:57:08.313Z,98211.31
2023-03-11T10:59:59.377Z,98228.00
2023-03-11T11:03:08.316Z,98232.59
2023-03-11T11:06:18.325Z,98222.97
2023-03-11T11:09:21.270Z,98233.66
2023-03-11T11:12:29.533Z,98235.72
2023-03-11T11:15:56.308Z,98236.19
2023-03-11T11:18:58.335Z,98243.50
2023-03-11T11:21:56.292Z,98246.38
2023-03-11T11:24:43.281Z,98252.78
2023-03-11T11:27:43.318Z,98237.19
2023-03-11T11:30:43.306Z,98240.97
2023-03-11T11:33:47.341Z,98222.09
2023-03-11T11:36:49.292Z,98225.87
2023-03-11T11:40:01.332Z,98236.78
2023-03-11T11:43:34.294Z,98236.78
2023-03-11T11:46:56.310Z,98250.16
2023-03-11T11:50:06.352Z,98258.91
2023-03-11T11:53:39.320Z,98272.63
2023-03-11T11:56:40.291Z,98272.28
2023-03-11T11:59:40.305Z,98283.34
2023-03-11T12:02:54.335Z,98287.09
2023-03-11T12:06:03.385Z,98284.84
2023-03-11T12:09:40.332Z,98288.38
2023-03-11T12:12:46.292Z,98284.88
2023-03-11T12:15:52.328Z,98290.19
2023-03-11T12:18:57.275Z,98260.09
2023-03-11T12:22:10.298Z,98276.25
2023-03-11T12:25:31.302Z,98298.97
2023-03-11T12:28:58.314Z,98300.66
2023-03-11T12:31:59.317Z,98304.38
2023-03-11T12:34:59.284Z,98302.88
2023-03-11T12:37:59.270Z,98302.09
2023-03-11T12:41:16.301Z,98317.16
2023-03-11T12:44:19.330Z,98318.00
2023-03-11T12:47:22.295Z,98331.41
2023-03-11T12:50:51.328Z,98336.38
2023-03-11T12:54:03.302Z,98343.75
2023-03-11T12:57:12.270Z,98357.09
2023-03-11T13:00:25.296Z,98357.50
2023-03-11T13:03:37.324Z,98384.91
2023-03-11T13:06:52.306Z,98386.53
2023-03-11T13:09:52.328Z,98405.66
2023-03-11T13:13:02.279Z,98431.53
2023-03-11T13:16:02.387Z,98442.97
2023-03-11T13:19:03.288Z,98441.62
2023-03-11T13:22:06.282Z,98454.31
2023-03-11T13:25:06.321Z,98461.09
2023-03-11T13:28:36.333Z,98474.19
2023-03-11T13:32:04.330Z,98492.16
2023-03-11T13:35:46.354Z,98508.16
2023-03-11T13:38:58.280Z,98510.00
2023-03-11T13:41:58.292Z,98507.91
2023-03-11T13:44:59.325Z,98484.78
2023-03-11T13:48:00.286Z,98498.19
2023-03-11T13:51:07.310Z,98502.38
2023-03-11T13:54:14.344Z,98501.59
2023-03-11T13:57:16.292Z,98470.06
2023-03-11T14:00:30.296Z,98500.03
2023-03-11T14:03:32.291Z,98493.41
2023-03-11T14:06:33.305Z,98516.03
2023-03-11T14:09:34.299Z,98514.56
2023-03-11T14:12:34.297Z,98527.31
2023-03-11T14:15:39.337Z,98528.81
2023-03-11T14:18:42.287Z,98518.00
2023-03-11T14:21:42.334Z,98522.94
2023-03-11T14:24:43.311Z,98521.81
2023-03-11T14:27:43.330Z,98514.97
2023-03-11T14:30:45.315Z,98531.97
2023-03-11T14:33:45.324Z,98548.13
2023-03-11T14:36:59.325Z,98545.66
2023-03-11T14:39:59.283Z,98558.78
2023-03-11T14:43:00.320Z,98549.81
2023-03-11T14:46:00.311Z,98569.88
2023-03-11T14:48:53.404Z,98579.19
2023-03-11T14:51:53.275Z,98581.41
2023-03-11T14:54:53.310Z,98585.75
2023-03-11T14:57:58.300Z,98587.38
2023-03-11T15:01:28.334Z,98602.81
2023-03-11T15:04:39.324Z,98618.28
2023-03-11T15:07:39.296Z,98625.56
2023-03-11T15:10:39.298Z,98624.34
2023-03-11T15:13:39.266Z,98627.69
2023-03-11T15:16:50.331Z,98626.34
2023-03-11T15:19:50.323Z,98634.94
2023-03-11T15:22:52.276Z,98639.06
2023-03-11T15:25:52.285Z,98640.66
2023-03-11T15:28:52.283Z,98656.41
2023-03-11T15:31:55.289Z,98658.06
2023-03-11T15:34:55.282Z,98663.72
2023-03-11T15:37:55.292Z,98664.69
2023-03-11T15:41:07.285Z,98644.34
2023-03-11T15:44:09.287Z,98680.09
2023-03-11T15:47:09.282Z,98671.12
2023-03-11T15:50:15.144Z,98683.25
2023-03-11T15:53:20.310Z,98677.19
2023-03-11T15:56:27.291Z,98694.91
2023-03-11T15:59:29.290Z,98714.59
2023-03-11T16:02:39.322Z,98702.56
2023-03-11T16:05:39.285Z,98702.06
2023-03-11T16:08:39.308Z,98724.75
2023-03-11T16:11:39.287Z,98742.44
2023-03-11T16:14:39.264Z,98751.06
2023-03-11T16:17:49.452Z,98763.28
2023-03-11T16:20:51.267Z,98743.87
2023-03-11T16:23:52.416Z,98785.47
2023-03-11T16:26:52.309Z,98798.53
2023-03-11T16:29:52.309Z,98807.25
2023-03-11T16:32:52.279Z,98809.84
2023-03-11T16:35:52.333Z,98814.75
2023-03-11T16:39:03.804Z,98828.22
2023-03-11T16:42:03.303Z,98818.06
2023-03-11T16:45:04.175Z,98843.53
2023-03-11T16:48:04.311Z,98819.84
2023-03-11T16:51:04.315Z,98851.94
2023-03-11T16:54:04.273Z,98852.03
2023-03-11T16:57:04.291Z,98844.19
2023-03-11T17:00:04.318Z,98871.94
2023-03-11T17:03:04.312Z,98885.31
2023-03-11T17:06:04.311Z,98864.72
2023-03-11T17:09:04.330Z,98880.06
2023-03-11T17:11:57.276Z,98909.38
2023-03-11T17:14:43.326Z,98917.34
2023-03-11T17:17:43.303Z,98924.41
2023-03-11T17:20:43.303Z,98926.19
2023-03-11T17:23:36.381Z,98916.44
2023-03-11T17:26:38.274Z,98951.06
2023-03-11T17:29:38.290Z,98957.91
2023-03-11T17:32:38.315Z,98968.50
2023-03-11T17:35:38.352Z,98969.53
2023-03-11T17:38:38.302Z,98978.22
2023-03-11T17:41:38.329Z,98988.31
2023-03-11T17:44:51.055Z,98995.97
2023-03-11T17:47:51.332Z,99011.31
2023-03-11T17:50:52.316Z,99018.47
2023-03-11T17:53:53.315Z,99003.84
2023-03-11T17:56:53.275Z,99039.00
2023-03-11T17:59:53.298Z,99030.41
2023-03-11T18:02:53.282Z,99057.38
2023-03-11T18:05:53.277Z,99064.22
2023-03-11T18:08:53.318Z,99073.75
2023-03-11T18:11:53.266Z,99063.78
2023-03-11T18:14:53.301Z,99072.41
2023-03-11T18:17:53.361Z,99061.28
2023-03-11T18:20:53.289Z,99081.81
2023-03-11T18:23:53.275Z,99079.16
2023-03-11T18:26:53.310Z,99087.13
2023-03-11T18:29:53.271Z,99104.63
2023-03-11T18:32:53.395Z,99111.69
2023-03-11T18:35:53.356Z,99112.16
2023-03-11T18:38:53.279Z,99133.84
2023-03-11T18:41:53.305Z,99147.53
2023-03-11T18:44:54.263Z,99148.66
2023-03-11T18:47:54.305Z,99154.44
2023-03-11T18:50:54.273Z,99156.50
2023-03-11T18:53:54.282Z,99161.31
2023-03-11T18:56:54.303Z,99154.84
2023-03-11T18:59:54.372Z,99164.19
2023-03-11T19:02:54.318Z,99173.53
2023-03-11T19:05:59.282Z,99153.59
2023-03-11T19:08:59.315Z,99166.91
2023-03-11T19:11:59.313Z,99167.28
2023-03-11T19:14:59.299Z,99178.91
2023-03-11T19:18:06.767Z,99160.00
2023-03-11T19:21:14.281Z,99172.72
2023-03-11T19:24:14.270Z,99178.00
2023-03-11T19:27:14.284Z,99198.44
2023-03-11T19:30:14.307Z,99187.28
2023-03-11T19:33:14.325Z,99185.97
2023-03-11T19:36:17.275Z,99182.12
2023-03-11T19:39:17.286Z,99222.69
2023-03-11T19:42:17.280Z,99229.28
2023-03-11T19:45:17.286Z,99241.31
2023-03-11T19:48:17.311Z,99237.03
2023-03-11T19:51:18.324Z,99233.13
2023-03-11T19:54:18.317Z,99223.63
2023-03-11T19:57:18.311Z,99259.03
2023-03-11T20:00:18.285Z,99241.09
2023-03-11T20:03:18.266Z,99246.34
2023-03-11T20:06:22.285Z,99273.28
2023-03-11T20:09:22.264Z,99276.78
2023-03-11T20:12:22.262Z,99276.87
2023-03-11T20:15:22.342Z,99291.56
2023-03-11T20:18:22.296Z,99264.00
2023-03-11T20:21:24.265Z,99291.56
2023-03-11T20:24:24.305Z,99301.19
2023-03-11T20:27:24.277Z,99306.19
2023-03-11T20:30:26.361Z,99295.47
2023-03-11T20:33:26.304Z,99313.84
2023-03-11T20:36:29.354Z,99312.16
2023-03-11T20:39:29.411Z,99314.75
2023-03-11T20:42:29.316Z,99316.38
2023-03-11T20:45:30.348Z,99301.91
2023-03-11T20:48:30.306Z,99318.19
2023-03-11T20:51:32.302Z,99329.47
2023-03-11T20:54:32.299Z,99323.19
2023-03-11T20:57:32.405Z,99316.06
2023-03-11T21:00:32.403Z,99320.38
2023-03-11T21:03:32.405Z,99339.91
2023-03-11T21:06:37.301Z,99345.19
2023-03-11T21:09:37.311Z,99353.03
2023-03-11T21:12:37.282Z,99340.88
2023-03-11T21:15:37.347Z,99364.56
2023-03-11T21:18:37.396Z,99369.34
2023-03-11T21:21:37.343Z,99365.06
2023-03-11T21:24:37.396Z,99388.75
2023-03-11T21:27:37.300Z,99392.75
2023-03-11T21:30:37.344Z,99410.69
2023-03-11T21:33:37.362Z,99389.59
2023-03-11T21:36:37.332Z,99418.53
2023-03-11T21:39:37.289Z,99415.13
2023-03-11T21:42:37.314Z,99410.44
2023-03-11T21:45:37.459Z,99423.78
2023-03-11T21:48:37.388Z,99425.97
2023-03-11T21:51:37.379Z,99422.72
2023-03-11T21:54:37.308Z,99439.47
2023-03-11T21:57:37.293Z,99424.81
2023-03-11T22:00:37.400Z,99450.84
2023-03-11T22:03:37.425Z,99459.53
2023-03-11T22:06:40.248Z,99464.78
2023-03-11T22:09:40.410Z,99449.84
2023-03-11T22:12:40.415Z,99465.88
2023-03-11T22:15:40.401Z,99470.28
2023-03-11T22:18:40.240Z,99470.88
2023-03-11T22:21:40.430Z,99475.13
2023-03-11T22:24:40.262Z,99475.37
2023-03-11T22:27:40.274Z,99504.31
2023-03-11T22:30:40.263Z,99492.91
2023-03-11T22:33:41.274Z,99503.72
2023-03-11T22:36:41.254Z,99508.22
2023-03-11T22:39:41.302Z,99498.03
2023-03-11T22:42:41.286Z,99504.09
2023-03-11T22:45:41.295Z,99529.88
2023-03-11T22:48:41.268Z,99503.28
2023-03-11T22:51:41.257Z,99543.84
2023-03-11T22:54:41.275Z,99540.44
2023-03-11T22:57:45.280Z,99540.59
2023-03-11T23:00:45.303Z,99555.19
2023-03-11T23:03:46.356Z,99548.19
2023-03-11T23:06:46.309Z,99555.88
2023-03-11T23:09:46.301Z,99555.03
2023-03-11T23:12:46.280Z,99544.25
2023-03-11T23:15:46.299Z,99564.47
2023-03-11T23:18:46.281Z,99568.72
2023-03-11T23:21:46.217Z,99563.94
2023-03-11T23:24:46.269Z,99590.37
2023-03-11T23:27:46.275Z,99576.34
2023-03-11T23:30:46.298Z,99568.13
2023-03-11T23:33:46.304Z,99600.97
2023-03-11T23:36:46.285Z,99581.81
2023-03-11T23:39:46.308Z,99591.00
2023-03-11T23:42:47.294Z,99616.62
2023-03-11T23:45:47.313Z,99619.13
2023-03-11T23:48:47.270Z,99608.50
2023-03-11T23:51:47.284Z,99628.84
2023-03-11T23:54:47.299Z,99634.28
2023-03-11T23:57:50.277Z,99643.81
